Time;durP1;ratioP1;P1;durP2;ratioP2;P2;SDS_P1;SDS_P2;PMS_P1;PMS_P2;Temp;Humidity;BMP_temperature;BMP_pressure;BME280_temperature;BME280_humidity;BME280_pressure;Samples;Min_cycle;Max_cycle;Signal;HPM_P1;HPM_P2
2024/02/27 00:01:59;;;;;;;22.77;12.43;;;4.60;99.90;;;-148.53;100.00;63986.66;5020569;28;20097;-80
2024/02/27 00:04:25;;;;;;;20.85;13.20;;;4.60;99.90;;;-148.53;100.00;63986.66;5019476;28;20096;-80
2024/02/27 00:06:54;;;;;;;21.63;12.32;;;4.50;99.90;;;-148.53;100.00;63986.66;5018219;28;20144;-79
2024/02/27 00:09:21;;;;;;;23.10;13.23;;;4.50;99.90;;;-148.53;100.00;63986.66;5029577;28;20080;-79
2024/02/27 00:11:48;;;;;;;23.75;13.05;;;4.50;99.90;;;-148.53;100.00;63986.66;5024824;28;20057;-79
2024/02/27 00:14:14;;;;;;;24.25;12.02;;;4.50;99.90;;;-148.53;100.00;63986.66;5020836;28;20049;-78
2024/02/27 00:16:40;;;;;;;23.67;13.23;;;4.50;99.90;;;-148.53;100.00;63986.66;5022349;28;20147;-79
2024/02/27 00:19:07;;;;;;;25.40;13.48;;;4.40;99.90;;;-148.53;100.00;63986.66;5030642;28;20038;-80
2024/02/27 00:21:32;;;;;;;24.02;13.75;;;4.40;99.90;;;-148.53;100.00;63986.66;5017952;28;20034;-79
2024/02/27 00:23:58;;;;;;;27.05;13.60;;;4.40;99.90;;;-148.53;100.00;63986.66;5019686;28;20044;-79
2024/02/27 00:26:24;;;;;;;22.00;12.82;;;4.40;99.90;;;-148.53;100.00;63986.66;5021128;28;20038;-79
2024/02/27 00:28:50;;;;;;;23.45;12.70;;;4.40;99.90;;;-148.53;100.00;63986.66;5024699;28;20129;-79
2024/02/27 00:31:15;;;;;;;23.02;13.27;;;4.40;99.90;;;-148.53;100.00;63986.66;5034941;28;20026;-80
2024/02/27 00:33:41;;;;;;;26.13;13.02;;;4.30;99.90;;;-148.53;100.00;63986.66;5020160;28;20389;-81
2024/02/27 00:36:08;;;;;;;20.85;12.70;;;4.30;99.90;;;-148.53;100.00;63986.66;5020901;28;20096;-80
2024/02/27 00:38:34;;;;;;;23.13;13.03;;;4.30;99.90;;;-148.53;100.00;63986.66;5014818;28;20445;-80
2024/02/27 00:41:04;;;;;;;24.45;13.38;;;4.30;99.90;;;-148.53;100.00;63986.66;5029967;28;20301;-80
2024/02/27 00:43:30;;;;;;;23.77;13.20;;;4.30;99.90;;;-148.53;100.00;63986.66;5022359;28;20045;-80
2024/02/27 00:45:56;;;;;;;24.08;13.30;;;4.30;99.90;;;-148.53;100.00;63986.66;5022328;28;22161;-80
2024/02/27 00:48:21;;;;;;;21.73;13.18;;;4.20;99.90;;;-148.53;100.00;63986.66;5029597;28;20056;-80
2024/02/27 00:50:48;;;;;;;22.05;12.77;;;4.20;99.90;;;-148.53;100.00;63986.66;5006536;28;20025;-81
2024/02/27 00:53:14;;;;;;;24.13;13.07;;;4.20;99.90;;;-148.53;100.00;63986.66;5018734;28;20033;-79
2024/02/27 00:55:40;;;;;;;22.25;12.93;;;4.20;99.90;;;-148.53;100.00;63986.66;5014130;28;20030;-80
2024/02/27 00:58:06;;;;;;;22.85;12.27;;;4.20;99.90;;;-148.53;100.00;63986.66;5021455;28;20107;-80
2024/02/27 01:00:32;;;;;;;22.10;12.52;;;4.20;99.90;;;-148.53;100.00;63986.66;5025863;28;20496;-80
2024/02/27 01:02:57;;;;;;;21.63;12.25;;;4.20;99.90;;;-148.53;100.00;63986.66;5029144;28;20038;-80
2024/02/27 01:05:23;;;;;;;24.48;12.50;;;4.10;99.90;;;-148.53;100.00;63986.66;5015747;28;20120;-81
2024/02/27 01:07:49;;;;;;;21.67;12.95;;;4.10;99.90;;;-148.53;100.00;63986.66;5024349;28;20070;-79
2024/02/27 01:10:15;;;;;;;24.75;12.98;;;4.00;99.90;;;-148.53;100.00;63986.66;5029700;28;20103;-80
2024/02/27 01:12:40;;;;;;;24.23;12.90;;;3.90;99.90;;;-148.53;100.00;63986.66;5023492;28;20132;-80
2024/02/27 01:15:07;;;;;;;21.27;12.07;;;4.00;99.90;;;-148.53;100.00;63986.66;5029429;28;20025;-80
2024/02/27 01:17:33;;;;;;;25.10;12.63;;;3.90;99.90;;;-148.53;100.00;63986.66;5018105;28;20585;-80
2024/02/27 01:19:58;;;;;;;24.95;12.40;;;3.90;99.90;;;-148.53;100.00;63986.66;5029100;28;20121;-79
2024/02/27 01:22:30;;;;;;;21.90;12.00;;;3.90;99.90;;;-148.53;100.00;63986.66;5030017;28;20041;-79
2024/02/27 01:24:58;;;;;;;23.15;11.98;;;3.80;99.90;;;-148.53;100.00;63986.66;5031337;28;20030;-80
2024/02/27 01:27:24;;;;;;;24.20;13.52;;;3.70;99.90;;;-148.53;100.00;63986.66;5016438;28;20516;-80
2024/02/27 01:29:50;;;;;;;24.35;12.30;;;3.60;99.90;;;-148.53;100.00;63986.66;5024689;28;20125;-79
2024/02/27 01:32:16;;;;;;;28.00;12.60;;;3.50;99.90;;;-148.53;100.00;63986.66;5009529;28;20036;-79
2024/02/27 01:34:42;;;;;;;22.45;12.27;;;3.40;99.90;;;-148.53;100.00;63986.66;5016851;28;20125;-79
2024/02/27 01:37:08;;;;;;;23.52;12.45;;;3.30;99.90;;;-148.53;100.00;63986.66;5028714;28;20083;-81
2024/02/27 01:39:34;;;;;;;23.55;12.23;;;3.20;99.90;;;-148.53;100.00;63986.66;5024647;28;20037;-80
2024/02/27 01:41:59;;;;;;;24.63;13.05;;;3.10;99.90;;;-148.53;100.00;63986.66;5018195;28;20034;-80
2024/02/27 01:44:26;;;;;;;27.05;13.07;;;3.00;99.90;;;-148.53;100.00;63986.66;5016915;28;20040;-80
2024/02/27 01:46:53;;;;;;;24.55;13.43;;;3.00;99.90;;;-148.53;100.00;63986.66;5020392;28;20045;-80
2024/02/27 01:49:20;;;;;;;23.92;13.02;;;2.90;99.90;;;-148.53;100.00;63986.66;5023961;28;20040;-80
2024/02/27 01:51:48;;;;;;;26.35;13.68;;;2.90;99.90;;;-148.53;100.00;63986.66;5029339;28;20668;-80
2024/02/27 01:54:19;;;;;;;23.60;12.65;;;2.80;99.90;;;-148.53;100.00;63986.66;5026364;28;20057;-80
2024/02/27 01:56:48;;;;;;;28.33;14.48;;;2.80;99.90;;;-148.53;100.00;63986.66;5016289;28;20061;-80
2024/02/27 01:59:18;;;;;;;28.48;13.82;;;2.70;99.90;;;-148.53;100.00;63986.66;5015763;28;20037;-80
2024/02/27 02:01:44;;;;;;;24.95;12.77;;;2.60;99.90;;;-148.53;100.00;63986.66;5022012;28;20038;-80
2024/02/27 02:04:15;;;;;;;27.95;14.02;;;2.60;99.90;;;-148.53;100.00;63986.66;5022177;28;20099;-80
2024/02/27 02:06:42;;;;;;;27.27;13.63;;;2.50;99.90;;;-148.53;100.00;63986.66;5016213;28;20079;-81
2024/02/27 02:09:08;;;;;;;28.08;13.95;;;2.50;99.90;;;-148.53;100.00;63986.66;5021499;28;20033;-79
2024/02/27 02:11:34;;;;;;;27.00;13.70;;;2.40;99.90;;;-148.53;100.00;63986.66;5015058;28;20076;-80
2024/02/27 02:14:02;;;;;;;29.70;13.65;;;2.40;99.90;;;-148.53;100.00;63986.66;5012965;28;20180;-80
2024/02/27 02:16:27;;;;;;;31.02;14.18;;;2.30;99.90;;;-148.53;100.00;63986.66;5024576;28;20096;-79
2024/02/27 02:18:56;;;;;;;29.60;14.80;;;2.30;99.90;;;-148.53;100.00;63986.66;5027637;28;20493;-80
2024/02/27 02:21:22;;;;;;;31.25;15.10;;;2.20;99.90;;;-148.53;100.00;63986.66;5029440;28;20061;-79
2024/02/27 02:23:47;;;;;;;30.88;14.85;;;2.20;99.90;;;-148.53;100.00;63986.66;5040960;28;20072;-80
2024/02/27 02:26:15;;;;;;;29.73;14.88;;;2.10;99.90;;;-148.53;100.00;63986.66;5017822;28;20087;-80
2024/02/27 02:28:41;;;;;;;33.83;16.48;;;2.10;99.90;;;-148.53;100.00;63986.66;5028199;28;20046;-79
2024/02/27 02:31:07;;;;;;;35.40;16.15;;;2.00;99.90;;;-148.53;100.00;63986.66;5028849;28;20041;-79
2024/02/27 02:33:33;;;;;;;33.03;16.55;;;2.00;99.90;;;-148.53;100.00;63986.66;5013031;28;20065;-79
2024/02/27 02:35:58;;;;;;;31.13;15.10;;;1.90;99.90;;;-148.53;100.00;63986.66;5025783;28;20037;-79
2024/02/27 02:38:24;;;;;;;34.92;15.30;;;2.00;99.90;;;-148.53;100.00;63986.66;5019798;28;20052;-79
2024/02/27 02:40:50;;;;;;;35.67;16.70;;;2.00;99.90;;;-148.53;100.00;63986.66;5027830;28;20478;-79
2024/02/27 02:43:15;;;;;;;33.88;15.77;;;2.00;99.90;;;-148.53;100.00;63986.66;5028799;28;20041;-79
2024/02/27 02:45:41;;;;;;;36.53;16.15;;;2.10;99.90;;;-148.53;100.00;63986.66;5021442;28;20048;-79
2024/02/27 02:48:07;;;;;;;40.97;18.63;;;2.20;99.90;;;-148.53;100.00;63986.66;5025823;28;20026;-80
2024/02/27 02:50:33;;;;;;;46.70;17.58;;;2.20;99.90;;;-148.53;100.00;63986.66;5016262;28;20520;-80
2024/02/27 02:52:59;;;;;;;44.60;18.13;;;2.30;99.90;;;-148.53;100.00;63986.66;5020422;28;20036;-80
2024/02/27 02:55:26;;;;;;;45.35;19.73;;;2.30;99.90;;;-148.53;100.00;63986.66;5023129;28;20428;-80
2024/02/27 02:57:51;;;;;;;45.65;19.92;;;2.30;99.90;;;-148.53;100.00;63986.66;5021621;28;20038;-79
2024/02/27 03:00:18;;;;;;;43.22;18.38;;;2.30;99.90;;;-148.53;100.00;63986.66;5015602;28;20034;-79
2024/02/27 03:02:44;;;;;;;37.17;15.80;;;2.30;99.90;;;-148.53;100.00;63986.66;5032893;28;20050;-79
2024/02/27 03:05:12;;;;;;;42.15;20.25;;;2.30;99.90;;;-148.53;100.00;63986.66;5015765;28;20045;-79
2024/02/27 03:07:41;;;;;;;47.63;21.10;;;2.30;99.90;;;-148.53;100.00;63986.66;5016102;28;20474;-80
2024/02/27 03:10:08;;;;;;;40.08;17.23;;;2.30;99.90;;;-148.53;100.00;63986.66;5025479;28;20029;-80
2024/02/27 03:12:43;;;;;;;48.58;20.45;;;2.30;99.90;;;-148.53;100.00;63986.66;5016262;28;20038;-79
2024/02/27 03:15:09;;;;;;;44.75;19.67;;;2.30;99.90;;;-148.53;100.00;63986.66;5034338;28;20393;-79
2024/02/27 03:17:35;;;;;;;45.97;20.40;;;2.30;99.90;;;-148.53;100.00;63986.66;5020260;28;20061;-79
2024/02/27 03:20:05;;;;;;;47.03;20.52;;;2.40;99.90;;;-148.53;100.00;63986.66;5025927;28;20129;-79
2024/02/27 03:22:31;;;;;;;47.03;21.05;;;2.40;99.90;;;-148.53;100.00;63986.66;5012743;28;20057;-79
2024/02/27 03:24:59;;;;;;;46.20;19.65;;;2.40;99.90;;;-148.53;100.00;63986.66;5012757;28;20122;-79
2024/02/27 03:27:25;;;;;;;42.63;19.58;;;2.40;99.90;;;-148.53;100.00;63986.66;5012604;28;20042;-79
2024/02/27 03:29:51;;;;;;;45.88;20.23;;;2.50;99.90;;;-148.53;100.00;63986.66;5022636;28;20107;-79
2024/02/27 03:32:19;;;;;;;43.55;18.02;;;2.40;99.90;;;-148.53;100.00;63986.66;5031061;28;20134;-79
2024/02/27 03:34:44;;;;;;;;;;;2.40;99.90;;;-148.53;100.00;63986.66;5022850;28;20503;-79
2024/02/27 03:37:10;;;;;;;41.22;18.17;;;2.40;99.90;;;-148.53;100.00;63986.66;5023635;28;19949;-80
2024/02/27 03:39:36;;;;;;;45.17;19.15;;;2.40;99.90;;;-148.53;100.00;63986.66;5033565;28;20046;-80
2024/02/27 03:42:02;;;;;;;48.58;19.95;;;2.40;99.90;;;-148.53;100.00;63986.66;5016904;28;20712;-80
2024/02/27 03:44:27;;;;;;;47.15;19.45;;;2.40;99.90;;;-148.53;100.00;63986.66;5016151;28;20038;-80
2024/02/27 03:46:53;;;;;;;45.47;19.58;;;2.50;99.90;;;-148.53;100.00;63986.66;5027729;28;20092;-80
2024/02/27 03:49:19;;;;;;;43.90;19.95;;;2.50;99.90;;;-148.53;100.00;63986.66;5028788;28;20037;-80
2024/02/27 03:51:44;;;;;;;45.63;20.65;;;2.50;99.90;;;-148.53;100.00;63986.66;5035975;28;20405;-80
2024/02/27 03:54:10;;;;;;;43.50;19.15;;;2.40;99.90;;;-148.53;100.00;63986.66;5018706;28;20048;-80
2024/02/27 03:56:37;;;;;;;44.22;18.88;;;2.50;99.90;;;-148.53;100.00;63986.66;5037095;28;20041;-81
2024/02/27 03:59:03;;;;;;;46.13;20.63;;;2.50;99.90;;;-148.53;100.00;63986.66;5019370;28;20033;-80
2024/02/27 04:01:28;;;;;;;47.05;20.50;;;2.50;99.90;;;-148.53;100.00;63986.66;5016843;28;20041;-79
2024/02/27 04:03:55;;;;;;;49.33;20.77;;;2.50;99.90;;;-148.53;100.00;63986.66;5019482;28;20041;-78
2024/02/27 04:06:20;;;;;;;48.22;19.75;;;2.50;99.90;;;-148.53;100.00;63986.66;5015259;28;20100;-80
2024/02/27 04:08:46;;;;;;;49.30;19.92;;;2.50;99.90;;;-148.53;100.00;63986.66;5020709;28;20049;-80
2024/02/27 04:11:12;;;;;;;43.78;19.67;;;2.50;99.90;;;-148.53;100.00;63986.66;5023237;28;20038;-80
2024/02/27 04:13:37;;;;;;;45.33;20.20;;;2.50;99.90;;;-148.53;100.00;63986.66;5022238;28;20037;-80
2024/02/27 04:16:04;;;;;;;50.95;21.17;;;2.60;99.90;;;-148.53;100.00;63986.66;5015047;28;20052;-81
2024/02/27 04:18:30;;;;;;;40.50;16.80;;;2.60;99.90;;;-148.53;100.00;63986.66;5019361;28;20168;-80
2024/02/27 04:20:56;;;;;;;48.58;20.55;;;2.60;99.90;;;-148.53;100.00;63986.66;5021742;28;20042;-80
2024/02/27 04:23:21;;;;;;;45.38;19.60;;;2.60;99.90;;;-148.53;100.00;63986.66;5030365;28;20041;-79
2024/02/27 04:25:47;;;;;;;46.33;20.10;;;2.60;99.90;;;-148.53;100.00;63986.66;5022896;28;20040;-79
2024/02/27 04:28:13;;;;;;;41.75;18.63;;;2.60;99.90;;;-148.53;100.00;63986.66;5020380;28;20036;-79
2024/02/27 04:30:39;;;;;;;47.95;19.65;;;2.70;99.90;;;-148.53;100.00;63986.66;5025316;28;20064;-79
2024/02/27 04:33:04;;;;;;;44.67;19.13;;;2.70;99.90;;;-148.53;100.00;63986.66;5022770;28;20400;-79
2024/02/27 04:35:30;;;;;;;47.05;20.27;;;2.70;99.90;;;-148.53;100.00;63986.66;5040873;28;20041;-79
2024/02/27 04:37:56;;;;;;;47.40;20.08;;;2.70;99.90;;;-148.53;100.00;63986.66;5014877;28;20051;-79
2024/02/27 04:40:22;;;;;;;46.45;20.20;;;2.70;99.90;;;-148.53;100.00;63986.66;5023375;28;20095;-79
2024/02/27 04:42:47;;;;;;;36.17;15.60;;;2.80;99.90;;;-148.53;100.00;63986.66;5030838;28;20033;-80
2024/02/27 04:45:13;;;;;;;48.58;19.25;;;2.80;99.90;;;-148.53;100.00;63986.66;5027487;28;20041;-79
2024/02/27 04:47:39;;;;;;;46.33;18.70;;;2.80;99.90;;;-148.53;100.00;63986.66;5018849;28;20045;-79
2024/02/27 04:50:05;;;;;;;41.00;18.30;;;2.80;99.90;;;-148.53;100.00;63986.66;5029877;28;20467;-79
2024/02/27 04:52:31;;;;;;;46.78;19.42;;;2.80;99.90;;;-148.53;100.00;63986.66;5014296;28;20090;-79
2024/02/27 04:54:56;;;;;;;42.10;18.98;;;2.80;99.90;;;-148.53;100.00;63986.66;5025982;28;20429;-79
2024/02/27 04:57:22;;;;;;;42.35;18.50;;;2.80;99.90;;;-148.53;100.00;63986.66;5026170;28;20038;-80
2024/02/27 04:59:48;;;;;;;44.47;19.05;;;2.90;99.90;;;-148.53;100.00;63986.66;5027301;28;20025;-78
2024/02/27 05:02:13;;;;;;;45.72;20.13;;;2.90;99.90;;;-148.53;100.00;63986.66;5037995;28;20043;-80
2024/02/27 05:04:39;;;;;;;41.72;19.17;;;2.90;99.90;;;-148.53;100.00;63986.66;5032457;28;20049;-79
2024/02/27 05:07:05;;;;;;;42.50;19.15;;;2.90;99.90;;;-148.53;100.00;63986.66;5036210;28;20034;-79
2024/02/27 05:09:31;;;;;;;38.15;16.83;;;2.90;99.90;;;-148.53;100.00;63986.66;5026424;28;20056;-80
2024/02/27 05:11:58;;;;;;;42.25;17.88;;;2.90;99.90;;;-148.53;100.00;63986.66;5029017;28;20136;-78
2024/02/27 05:14:25;;;;;;;39.53;16.63;;;2.90;99.90;;;-148.53;100.00;63986.66;5035739;28;20370;-79
2024/02/27 05:16:51;;;;;;;35.53;16.70;;;2.90;99.90;;;-148.53;100.00;63986.66;5042592;28;20393;-80
2024/02/27 05:19:17;;;;;;;42.70;18.30;;;3.00;99.90;;;-148.53;100.00;63986.66;5029523;28;20048;-80
2024/02/27 05:21:43;;;;;;;38.22;17.20;;;3.00;99.90;;;-148.53;100.00;63986.66;5034463;28;20044;-80
2024/02/27 05:24:08;;;;;;;38.85;17.75;;;3.00;99.90;;;-148.53;100.00;63986.66;5036282;28;20029;-80
2024/02/27 05:26:35;;;;;;;40.30;17.95;;;3.00;99.90;;;-148.53;100.00;63986.66;5025717;28;20405;-79
2024/02/27 05:29:00;;;;;;;38.80;17.90;;;2.90;99.90;;;-148.53;100.00;63986.66;5054307;28;20125;-80
2024/02/27 05:31:28;;;;;;;35.17;16.38;;;3.00;99.90;;;-148.53;100.00;63986.66;5042575;28;20037;-80
2024/02/27 05:33:55;;;;;;;41.25;18.20;;;3.00;99.90;;;-148.53;100.00;63986.66;5037747;28;20072;-80
2024/02/27 05:36:23;;;;;;;38.00;17.45;;;3.00;99.90;;;-148.53;100.00;63986.66;5038622;28;20048;-80
2024/02/27 05:38:56;;;;;;;36.65;17.20;;;3.00;99.90;;;-148.53;100.00;63986.66;5034016;28;20041;-80
2024/02/27 05:41:22;;;;;;;39.53;17.65;;;3.00;99.90;;;-148.53;100.00;63986.66;5041983;28;20033;-79
2024/02/27 05:43:48;;;;;;;37.83;17.05;;;3.00;99.90;;;-148.53;100.00;63986.66;5021900;28;20098;-79
2024/02/27 05:46:14;;;;;;;38.47;16.25;;;3.00;99.90;;;-148.53;100.00;63986.66;5036962;28;20059;-80
2024/02/27 05:48:44;;;;;;;47.20;19.08;;;3.00;99.90;;;-148.53;100.00;63986.66;5038700;28;20477;-79
2024/02/27 05:51:10;;;;;;;39.60;17.33;;;3.10;99.90;;;-148.53;100.00;63986.66;5036513;28;20115;-80
2024/02/27 05:53:36;;;;;;;39.38;18.10;;;3.10;99.90;;;-148.53;100.00;63986.66;5036982;28;20045;-80
2024/02/27 05:56:03;;;;;;;37.25;15.88;;;3.10;99.90;;;-148.53;100.00;63986.66;5035686;28;20037;-79
2024/02/27 05:58:29;;;;;;;38.30;17.58;;;3.10;99.90;;;-148.53;100.00;63986.66;5029181;28;20037;-80
2024/02/27 06:00:56;;;;;;;38.85;18.48;;;3.10;99.90;;;-148.53;100.00;63986.66;5027257;28;20037;-79
2024/02/27 06:03:23;;;;;;;38.17;17.05;;;3.20;99.90;;;-148.53;100.00;63986.66;5023752;28;20045;-79
2024/02/27 06:05:51;;;;;;;34.45;15.70;;;3.20;99.90;;;-148.53;100.00;63986.66;5027281;28;20499;-80
2024/02/27 06:08:17;;;;;;;36.00;16.75;;;3.30;99.90;;;-148.53;100.00;63986.66;5017915;28;20116;-77
2024/02/27 06:10:44;;;;;;;36.83;16.50;;;3.30;99.90;;;-148.53;100.00;63986.66;5022575;28;20029;-78
2024/02/27 06:13:10;;;;;;;36.80;16.83;;;3.30;99.90;;;-148.53;100.00;63986.66;5032847;28;20050;-77
2024/02/27 06:15:36;;;;;;;37.15;16.25;;;3.30;99.90;;;-148.53;100.00;63986.66;5031691;28;20137;-78
2024/02/27 06:18:05;;;;;;;38.67;16.67;;;3.30;99.90;;;-148.53;100.00;63986.66;5034043;28;20032;-79
2024/02/27 06:23:15;;;;;;;37.45;16.55;;;3.40;99.90;;;-148.53;100.00;63986.66;5019875;28;20433;-78
2024/02/27 06:25:40;;;;;;;34.38;16.13;;;3.40;99.90;;;-148.53;100.00;63986.66;5012838;28;20034;-77
2024/02/27 06:28:06;;;;;;;38.53;16.80;;;3.40;99.90;;;-148.53;100.00;63986.66;5014639;28;20080;-78
2024/02/27 06:30:32;;;;;;;37.33;15.90;;;3.40;99.90;;;-148.53;100.00;63986.66;5024186;28;20034;-79
2024/02/27 06:32:57;;;;;;;35.72;17.40;;;3.40;99.90;;;-148.53;100.00;63986.66;5025994;28;20066;-78
2024/02/27 06:35:24;;;;;;;32.10;16.13;;;3.40;99.90;;;-148.53;100.00;63986.66;5028881;28;20046;-78
2024/02/27 06:37:50;;;;;;;35.58;15.77;;;3.40;99.90;;;-148.53;100.00;63986.66;5044584;28;20124;-79
2024/02/27 06:40:16;;;;;;;32.42;15.70;;;3.40;99.90;;;-148.53;100.00;63986.66;5028650;28;20397;-78
2024/02/27 06:42:43;;;;;;;31.70;14.73;;;3.50;99.90;;;-148.53;100.00;63986.66;5013692;28;20516;-77
2024/02/27 06:45:10;;;;;;;34.25;15.70;;;3.50;99.90;;;-148.53;100.00;63986.66;5019360;28;20124;-79
2024/02/27 06:47:42;;;;;;;36.30;16.17;;;3.60;99.90;;;-148.53;100.00;63986.66;5028982;28;20044;-78
2024/02/27 06:50:09;;;;;;;35.60;16.90;;;3.60;99.90;;;-148.53;100.00;63986.66;5031826;28;20131;-78
2024/02/27 06:52:36;;;;;;;30.67;14.65;;;3.60;99.90;;;-148.53;100.00;63986.66;5031594;28;20151;-78
2024/02/27 06:55:03;;;;;;;31.83;14.73;;;3.60;99.90;;;-148.53;100.00;63986.66;5034503;28;20053;-80
2024/02/27 06:57:29;;;;;;;30.75;14.43;;;3.70;99.90;;;-148.53;100.00;63986.66;5034696;28;20428;-79
2024/02/27 06:59:55;;;;;;;33.70;14.85;;;3.60;99.90;;;-148.53;100.00;63986.66;5034066;28;20045;-80
2024/02/27 07:02:21;;;;;;;33.92;15.35;;;3.70;99.90;;;-148.53;100.00;63986.66;5032547;28;20033;-79
2024/02/27 07:04:46;;;;;;;29.77;15.10;;;3.70;99.90;;;-148.53;100.00;63986.66;5031536;28;20073;-79
2024/02/27 07:07:12;;;;;;;29.90;15.10;;;3.70;99.90;;;-148.53;100.00;63986.66;5037693;28;20037;-79
2024/02/27 07:09:38;;;;;;;32.20;15.43;;;3.80;99.90;;;-148.53;100.00;63986.66;5035275;28;20045;-79
2024/02/27 07:12:04;;;;;;;30.55;15.18;;;3.80;99.90;;;-148.53;100.00;63986.66;5035395;28;20037;-81
2024/02/27 07:14:32;;;;;;;29.77;14.85;;;3.90;99.90;;;-148.53;100.00;63986.66;5035149;28;20029;-80
2024/02/27 07:16:59;;;;;;;31.67;15.90;;;3.90;99.90;;;-148.53;100.00;63986.66;5038127;28;20498;-82
2024/02/27 07:19:26;;;;;;;33.13;15.27;;;3.90;99.90;;;-148.53;100.00;63986.66;5036341;28;20099;-81
2024/02/27 07:21:52;;;;;;;30.13;14.43;;;4.00;99.90;;;-148.53;100.00;63986.66;5032956;28;20109;-80
2024/02/27 07:24:19;;;;;;;30.65;15.07;;;4.10;99.90;;;-148.53;100.00;63986.66;5042693;28;20477;-79
2024/02/27 07:26:45;;;;;;;32.63;14.38;;;4.10;99.90;;;-148.53;100.00;63986.66;5037897;28;20464;-78
2024/02/27 07:29:13;;;;;;;29.92;14.75;;;4.10;99.90;;;-148.53;100.00;63986.66;5033872;28;20040;-80
2024/02/27 07:31:39;;;;;;;28.58;14.75;;;4.10;99.90;;;-148.53;100.00;63986.66;5035306;28;20482;-79
2024/02/27 07:34:05;;;;;;;28.85;14.38;;;4.10;99.90;;;-148.53;100.00;63986.66;5034320;28;20072;-80
2024/02/27 07:36:31;;;;;;;30.17;14.68;;;4.10;99.90;;;-148.53;100.00;63986.66;5033763;28;20103;-80
2024/02/27 07:38:57;;;;;;;26.45;14.05;;;4.20;99.90;;;-148.53;100.00;63986.66;5051391;28;20042;-80
2024/02/27 07:41:24;;;;;;;30.38;14.95;;;4.20;99.90;;;-148.53;100.00;63986.66;5037526;28;20087;-79
2024/02/27 07:43:49;;;;;;;29.58;15.07;;;4.30;99.90;;;-148.53;100.00;63986.66;5043400;28;20114;-79
2024/02/27 07:46:16;;;;;;;27.45;14.73;;;4.40;99.90;;;-148.53;100.00;63986.66;5038373;28;20460;-79
2024/02/27 07:48:45;;;;;;;28.73;14.27;;;4.40;99.90;;;-148.53;100.00;63986.66;5041527;28;20041;-78
2024/02/27 07:51:31;;;;;;;27.17;14.10;;;4.50;99.90;;;-148.53;100.00;63986.66;5044408;28;20033;-79
2024/02/27 07:53:57;;;;;;;30.55;15.00;;;4.40;99.90;;;-148.53;100.00;63986.66;5042610;28;20051;-79
2024/02/27 07:56:25;;;;;;;29.45;15.00;;;4.30;99.90;;;-148.53;100.00;63986.66;5051465;28;20053;-80
2024/02/27 07:58:52;;;;;;;;;;;4.40;99.90;;;-148.53;100.00;63986.66;5032252;28;20413;-80
2024/02/27 08:01:18;;;;;;;28.52;15.07;;;4.40;99.90;;;-148.53;100.00;63986.66;5034478;28;20384;-81
2024/02/27 08:03:44;;;;;;;30.15;15.40;;;4.50;99.90;;;-148.53;100.00;63986.66;5016490;28;20049;-79
2024/02/27 08:06:10;;;;;;;28.38;14.98;;;4.70;99.90;;;-148.53;100.00;63986.66;5032778;28;20033;-79
2024/02/27 08:08:35;;;;;;;31.40;15.93;;;4.80;99.90;;;-148.53;100.00;63986.66;5015450;28;20037;-79
2024/02/27 08:11:06;;;;;;;28.05;15.07;;;4.80;99.90;;;-148.53;100.00;63986.66;5030041;28;20120;-78
2024/02/27 08:13:32;;;;;;;25.40;13.98;;;4.80;99.90;;;-148.53;100.00;63986.66;5020121;28;20470;-79
2024/02/27 08:15:58;;;;;;;28.88;14.98;;;4.80;99.90;;;-148.53;100.00;63986.66;5015317;28;20113;-80
2024/02/27 08:18:24;;;;;;;29.20;14.95;;;4.90;99.90;;;-148.53;100.00;63986.66;5036308;28;20621;-79
2024/02/27 08:20:50;;;;;;;26.95;14.05;;;4.90;99.90;;;-148.53;100.00;63986.66;5032786;28;20492;-79
2024/02/27 08:23:16;;;;;;;26.88;14.05;;;4.90;99.90;;;-148.53;100.00;63986.66;5035319;28;20120;-78
2024/02/27 08:25:42;;;;;;;26.50;14.13;;;4.80;99.90;;;-148.53;100.00;63986.66;5028184;28;20069;-80
2024/02/27 08:28:08;;;;;;;28.10;14.65;;;4.80;99.90;;;-148.53;100.00;63986.66;5031132;28;20065;-81
2024/02/27 08:30:34;;;;;;;27.80;13.10;;;4.90;99.90;;;-148.53;100.00;63986.66;5031788;28;20091;-80
2024/02/27 08:33:00;;;;;;;28.05;14.07;;;4.90;99.90;;;-148.53;100.00;63986.66;5014754;28;20033;-80
2024/02/27 08:35:26;;;;;;;26.35;13.45;;;4.90;99.90;;;-148.53;100.00;63986.66;5027075;28;20440;-80
2024/02/27 08:37:52;;;;;;;26.23;14.15;;;5.00;99.90;;;-148.53;100.00;63986.66;5024965;28;20040;-80
2024/02/27 08:40:19;;;;;;;26.40;14.30;;;5.10;99.90;;;-148.53;100.00;63986.66;5037072;28;20045;-81
2024/02/27 08:42:45;;;;;;;27.73;14.30;;;5.30;99.90;;;-148.53;100.00;63986.66;5025100;28;20034;-80
2024/02/27 08:45:11;;;;;;;27.92;15.05;;;5.40;99.90;;;-148.53;100.00;63986.66;5017973;28;20030;-79
2024/02/27 08:47:36;;;;;;;28.27;14.65;;;5.30;99.90;;;-148.53;100.00;63986.66;5023028;28;20030;-80
2024/02/27 08:50:06;;;;;;;25.70;12.95;;;5.40;99.90;;;-148.53;100.00;63986.66;5034374;28;20152;-81
2024/02/27 08:52:32;;;;;;;27.63;13.85;;;5.40;99.90;;;-148.53;100.00;63986.66;5015787;28;20062;-80
2024/02/27 08:54:58;;;;;;;26.35;13.75;;;5.30;99.90;;;-148.53;100.00;63986.66;5036136;28;20100;-79
2024/02/27 08:57:24;;;;;;;26.08;13.88;;;5.40;99.90;;;-148.53;100.00;63986.66;5020621;28;20038;-80
2024/02/27 08:59:49;;;;;;;22.67;11.48;;;5.40;99.90;;;-148.53;100.00;63986.66;5009179;28;20033;-80
2024/02/27 09:02:16;;;;;;;25.38;12.65;;;5.30;99.90;;;-148.53;100.00;63986.66;5024105;28;20394;-82
2024/02/27 09:04:42;;;;;;;24.70;13.10;;;5.20;99.90;;;-148.53;100.00;63986.66;5020657;28;20173;-80
2024/02/27 09:07:10;;;;;;;25.27;13.55;;;5.20;99.90;;;-148.53;100.00;63986.66;5020592;28;20026;-80
2024/02/27 09:09:37;;;;;;;24.40;13.35;;;5.20;99.90;;;-148.53;100.00;63986.66;5027424;28;20053;-81
2024/02/27 09:12:05;;;;;;;26.52;13.68;;;5.30;99.90;;;-148.53;100.00;63986.66;5013766;28;20494;-81
2024/02/27 09:14:31;;;;;;;26.30;14.30;;;5.30;99.90;;;-148.53;100.00;63986.66;5022980;28;20045;-81
2024/02/27 09:16:57;;;;;;;25.35;13.63;;;5.30;99.90;;;-148.53;100.00;63986.66;5036730;28;20095;-81
2024/02/27 09:19:25;;;;;;;21.40;12.18;;;5.30;99.90;;;-148.53;100.00;63986.66;5036814;28;20049;-80
2024/02/27 09:21:52;;;;;;;27.88;12.85;;;5.30;99.90;;;-148.53;100.00;63986.66;5019146;28;20065;-80
2024/02/27 09:24:18;;;;;;;23.90;12.40;;;5.30;99.90;;;-148.53;100.00;63986.66;5019188;28;20489;-81
2024/02/27 09:26:44;;;;;;;21.55;11.10;;;5.30;99.90;;;-148.53;100.00;63986.66;5013850;28;20042;-80
2024/02/27 09:29:11;;;;;;;23.25;12.73;;;5.30;99.90;;;-148.53;100.00;63986.66;5028125;28;20041;-81
2024/02/27 09:31:36;;;;;;;24.05;12.38;;;5.40;99.90;;;-148.53;100.00;63986.66;5026250;28;20034;-80
2024/02/27 09:34:02;;;;;;;22.73;12.60;;;5.40;99.90;;;-148.53;100.00;63986.66;5026830;28;20037;-79
2024/02/27 09:36:28;;;;;;;25.00;12.68;;;5.50;99.90;;;-148.53;100.00;63986.66;5029704;28;20042;-80
2024/02/27 09:38:54;;;;;;;24.80;13.75;;;5.50;99.90;;;-148.53;100.00;63986.66;5033230;28;20036;-77
2024/02/27 09:41:34;;;;;;;22.17;12.50;;;5.60;99.90;;;-148.53;100.00;63986.66;5036045;28;20841;-79
2024/02/27 09:44:01;;;;;;;21.45;12.32;;;5.70;99.90;;;-148.53;100.00;63986.66;5032766;28;20038;-79
2024/02/27 09:46:28;;;;;;;23.13;11.60;;;5.50;99.90;;;-148.53;100.00;63986.66;5016698;28;20088;-79
2024/02/27 09:48:56;;;;;;;24.33;12.50;;;5.40;99.90;;;-148.53;100.00;63986.66;5013621;28;20030;-79
2024/02/27 09:51:26;;;;;;;21.75;11.63;;;5.40;99.90;;;-148.53;100.00;63986.66;5009649;28;20096;-80
2024/02/27 09:53:57;;;;;;;19.10;11.18;;;5.80;99.90;;;-148.53;100.00;63986.66;5018933;28;20469;-81